sensor_id;sensor_type;location;lat;lon;timestamp;temperature;humidity
19970;DHT22;10146;47.754;9.566;2023-02-07T00:00:13;-1.40;99.90
19970;DHT22;10146;47.754;9.566;2023-02-07T00:02:43;-1.50;99.90
19970;DHT22;10146;47.754;9.566;2023-02-07T00:05:09;-1.50;99.90
19970;DHT22;10146;47.754;9.566;2023-02-07T00:07:36;-1.50;99.90
19970;DHT22;10146;47.754;9.566;2023-02-07T00:10:02;-1.50;99.90
19970;DHT22;10146;47.754;9.566;2023-02-07T00:12:28;-1.60;99.90
19970;DHT22;10146;47.754;9.566;2023-02-07T00:14:53;-1.60;99.90
19970;DHT22;10146;47.754;9.566;2023-02-07T00:17:19;-1.60;99.90
19970;DHT22;10146;47.754;9.566;2023-02-07T00:19:44;-1.50;99.90
19970;DHT22;10146;47.754;9.566;2023-02-07T00:22:10;-1.50;99.90
19970;DHT22;10146;47.754;9.566;2023-02-07T00:24:36;-1.50;99.90
19970;DHT22;10146;47.754;9.566;2023-02-07T00:27:01;-1.60;99.90
19970;DHT22;10146;47.754;9.566;2023-02-07T00:29:27;-1.60;99.90
19970;DHT22;10146;47.754;9.566;2023-02-07T00:31:52;-1.60;99.90
19970;DHT22;10146;47.754;9.566;2023-02-07T00:34:18;-1.60;99.90
19970;DHT22;10146;47.754;9.566;2023-02-07T00:36:44;-1.60;99.90
19970;DHT22;10146;47.754;9.566;2023-02-07T00:39:15;-1.60;99.90
19970;DHT22;10146;47.754;9.566;2023-02-07T00:41:42;-1.60;99.90
19970;DHT22;10146;47.754;9.566;2023-02-07T00:44:08;-1.60;99.90
19970;DHT22;10146;47.754;9.566;2023-02-07T00:46:34;-1.60;99.90
19970;DHT22;10146;47.754;9.566;2023-02-07T00:49:00;-1.50;99.90
19970;DHT22;10146;47.754;9.566;2023-02-07T00:51:27;-1.60;99.90
19970;DHT22;10146;47.754;9.566;2023-02-07T00:53:53;-1.60;99.90
19970;DHT22;10146;47.754;9.566;2023-02-07T00:56:21;-1.70;99.90
19970;DHT22;10146;47.754;9.566;2023-02-07T00:58:46;-1.60;99.90
19970;DHT22;10146;47.754;9.566;2023-02-07T01:01:12;-1.60;99.90
19970;DHT22;10146;47.754;9.566;2023-02-07T01:03:38;-1.60;99.90
19970;DHT22;10146;47.754;9.566;2023-02-07T01:06:04;-1.60;99.90
19970;DHT22;10146;47.754;9.566;2023-02-07T01:08:30;-1.60;99.90
19970;DHT22;10146;47.754;9.566;2023-02-07T01:10:56;-1.70;99.90
19970;DHT22;10146;47.754;9.566;2023-02-07T01:13:22;-1.70;99.90
19970;DHT22;10146;47.754;9.566;2023-02-07T01:15:48;-1.70;99.90
19970;DHT22;10146;47.754;9.566;2023-02-07T01:18:15;-1.70;99.90
19970;DHT22;10146;47.754;9.566;2023-02-07T01:20:40;-1.70;99.90
19970;DHT22;10146;47.754;9.566;2023-02-07T01:23:10;-1.80;99.90
19970;DHT22;10146;47.754;9.566;2023-02-07T01:25:37;-1.80;99.90
19970;DHT22;10146;47.754;9.566;2023-02-07T01:28:03;-1.70;99.90
19970;DHT22;10146;47.754;9.566;2023-02-07T01:30:29;-1.80;99.90
19970;DHT22;10146;47.754;9.566;2023-02-07T01:32:55;-1.70;99.90
19970;DHT22;10146;47.754;9.566;2023-02-07T01:35:20;-1.70;99.90
19970;DHT22;10146;47.754;9.566;2023-02-07T01:37:46;-1.70;99.90
19970;DHT22;10146;47.754;9.566;2023-02-07T01:40:12;-1.80;99.90
19970;DHT22;10146;47.754;9.566;2023-02-07T01:42:38;-1.90;99.90
19970;DHT22;10146;47.754;9.566;2023-02-07T01:47:54;-1.80;99.90
19970;DHT22;10146;47.754;9.566;2023-02-07T01:50:21;-1.80;99.90
19970;DHT22;10146;47.754;9.566;2023-02-07T01:52:47;-1.80;99.90
19970;DHT22;10146;47.754;9.566;2023-02-07T01:55:17;-1.80;99.90
19970;DHT22;10146;47.754;9.566;2023-02-07T01:57:44;-1.90;99.90
19970;DHT22;10146;47.754;9.566;2023-02-07T02:00:12;-1.80;99.90
19970;DHT22;10146;47.754;9.566;2023-02-07T02:02:38;-1.80;99.90
19970;DHT22;10146;47.754;9.566;2023-02-07T02:05:04;-1.90;99.90
19970;DHT22;10146;47.754;9.566;2023-02-07T02:07:31;-1.90;99.90
19970;DHT22;10146;47.754;9.566;2023-02-07T02:09:59;-1.90;99.90
19970;DHT22;10146;47.754;9.566;2023-02-07T02:12:59;-1.80;99.90
19970;DHT22;10146;47.754;9.566;2023-02-07T02:15:38;-1.90;99.90
19970;DHT22;10146;47.754;9.566;2023-02-07T02:26:38;-2.00;99.90
19970;DHT22;10146;47.754;9.566;2023-02-07T02:34:53;-1.90;99.90
19970;DHT22;10146;47.754;9.566;2023-02-07T02:40:22;-2.00;99.90
19970;DHT22;10146;47.754;9.566;2023-02-07T02:42:54;-2.10;99.90
19970;DHT22;10146;47.754;9.566;2023-02-07T02:45:26;-2.10;99.90
19970;DHT22;10146;47.754;9.566;2023-02-07T02:47:54;-2.00;99.90
19970;DHT22;10146;47.754;9.566;2023-02-07T02:50:26;-2.00;99.90
19970;DHT22;10146;47.754;9.566;2023-02-07T02:52:52;-2.10;99.90
19970;DHT22;10146;47.754;9.566;2023-02-07T02:55:48;-2.10;99.90
19970;DHT22;10146;47.754;9.566;2023-02-07T02:58:25;-2.20;99.90
19970;DHT22;10146;47.754;9.566;2023-02-07T03:01:11;-2.10;99.90
19970;DHT22;10146;47.754;9.566;2023-02-07T03:08:46;-2.20;99.90
19970;DHT22;10146;47.754;9.566;2023-02-07T03:11:20;-2.20;99.90
19970;DHT22;10146;47.754;9.566;2023-02-07T03:13:58;-2.30;99.90
19970;DHT22;10146;47.754;9.566;2023-02-07T03:16:46;-2.20;99.90
19970;DHT22;10146;47.754;9.566;2023-02-07T03:19:23;-2.20;99.90
19970;DHT22;10146;47.754;9.566;2023-02-07T03:21:54;-2.20;99.90
19970;DHT22;10146;47.754;9.566;2023-02-07T03:24:32;-2.20;99.90
19970;DHT22;10146;47.754;9.566;2023-02-07T03:27:01;-2.30;99.90
19970;DHT22;10146;47.754;9.566;2023-02-07T03:29:30;-2.30;99.90
19970;DHT22;10146;47.754;9.566;2023-02-07T03:31:58;-2.30;99.90
19970;DHT22;10146;47.754;9.566;2023-02-07T03:37:27;-2.20;99.90
19970;DHT22;10146;47.754;9.566;2023-02-07T03:39:53;-2.30;99.90
19970;DHT22;10146;47.754;9.566;2023-02-07T03:44:55;-2.30;99.90
19970;DHT22;10146;47.754;9.566;2023-02-07T03:47:21;-2.20;99.90
19970;DHT22;10146;47.754;9.566;2023-02-07T03:49:47;-2.30;99.90
19970;DHT22;10146;47.754;9.566;2023-02-07T03:52:12;-2.40;99.90
19970;DHT22;10146;47.754;9.566;2023-02-07T03:54:38;-2.40;99.90
19970;DHT22;10146;47.754;9.566;2023-02-07T03:57:04;-2.40;99.90
19970;DHT22;10146;47.754;9.566;2023-02-07T03:59:29;-2.40;99.90
19970;DHT22;10146;47.754;9.566;2023-02-07T04:01:55;-2.40;99.90
19970;DHT22;10146;47.754;9.566;2023-02-07T04:04:20;-2.40;99.90
19970;DHT22;10146;47.754;9.566;2023-02-07T04:06:46;-2.40;99.90
19970;DHT22;10146;47.754;9.566;2023-02-07T04:09:12;-2.40;99.90
19970;DHT22;10146;47.754;9.566;2023-02-07T04:11:37;-2.30;99.90
19970;DHT22;10146;47.754;9.566;2023-02-07T04:14:03;-2.40;99.90
19970;DHT22;10146;47.754;9.566;2023-02-07T04:16:28;-2.40;99.90
19970;DHT22;10146;47.754;9.566;2023-02-07T04:18:54;-2.40;99.90
19970;DHT22;10146;47.754;9.566;2023-02-07T04:21:20;-2.50;99.90
19970;DHT22;10146;47.754;9.566;2023-02-07T04:23:45;-2.40;99.90
19970;DHT22;10146;47.754;9.566;2023-02-07T04:26:11;-2.40;99.90
19970;DHT22;10146;47.754;9.566;2023-02-07T04:28:36;-2.40;99.90
19970;DHT22;10146;47.754;9.566;2023-02-07T04:31:02;-2.50;99.90
19970;DHT22;10146;47.754;9.566;2023-02-07T04:33:28;-2.40;99.90
19970;DHT22;10146;47.754;9.566;2023-02-07T04:35:57;-2.40;99.90
19970;DHT22;10146;47.754;9.566;2023-02-07T04:38:24;-2.50;99.90
19970;DHT22;10146;47.754;9.566;2023-02-07T04:40:50;-2.60;99.90
19970;DHT22;10146;47.754;9.566;2023-02-07T04:43:15;-2.40;99.90
19970;DHT22;10146;47.754;9.566;2023-02-07T04:45:41;-2.50;99.90
19970;DHT22;10146;47.754;9.566;2023-02-07T04:48:07;-2.40;99.90
19970;DHT22;10146;47.754;9.566;2023-02-07T04:50:32;-2.50;99.90
19970;DHT22;10146;47.754;9.566;2023-02-07T04:52:58;-2.50;99.90
19970;DHT22;10146;47.754;9.566;2023-02-07T04:55:23;-2.50;99.90
19970;DHT22;10146;47.754;9.566;2023-02-07T04:57:49;-2.50;99.90
19970;DHT22;10146;47.754;9.566;2023-02-07T05:00:15;-2.50;99.90
19970;DHT22;10146;47.754;9.566;2023-02-07T05:02:42;-2.50;99.90
19970;DHT22;10146;47.754;9.566;2023-02-07T05:05:08;-2.60;99.90
19970;DHT22;10146;47.754;9.566;2023-02-07T05:07:34;-2.50;99.90
19970;DHT22;10146;47.754;9.566;2023-02-07T05:10:00;-2.50;99.90
19970;DHT22;10146;47.754;9.566;2023-02-07T05:12:26;-2.60;99.90
19970;DHT22;10146;47.754;9.566;2023-02-07T05:14:51;-2.60;99.90
19970;DHT22;10146;47.754;9.566;2023-02-07T05:17:17;-2.60;99.90
19970;DHT22;10146;47.754;9.566;2023-02-07T05:19:42;-2.60;99.90
19970;DHT22;10146;47.754;9.566;2023-02-07T05:22:08;-2.60;99.90
19970;DHT22;10146;47.754;9.566;2023-02-07T05:24:34;-2.60;99.90
19970;DHT22;10146;47.754;9.566;2023-02-07T05:26:59;-2.50;99.90
19970;DHT22;10146;47.754;9.566;2023-02-07T05:29:25;-2.50;99.90
19970;DHT22;10146;47.754;9.566;2023-02-07T05:31:51;-2.60;99.90
19970;DHT22;10146;47.754;9.566;2023-02-07T05:34:40;-2.70;99.90
19970;DHT22;10146;47.754;9.566;2023-02-07T05:37:05;-2.70;99.90
19970;DHT22;10146;47.754;9.566;2023-02-07T05:39:31;-2.90;99.90
19970;DHT22;10146;47.754;9.566;2023-02-07T05:41:56;-2.80;99.90
19970;DHT22;10146;47.754;9.566;2023-02-07T05:44:22;-2.80;99.90
19970;DHT22;10146;47.754;9.566;2023-02-07T05:46:47;-2.70;99.90
19970;DHT22;10146;47.754;9.566;2023-02-07T05:49:13;-2.70;99.90
19970;DHT22;10146;47.754;9.566;2023-02-07T05:51:39;-2.70;99.90
19970;DHT22;10146;47.754;9.566;2023-02-07T05:54:04;-2.70;99.90
19970;DHT22;10146;47.754;9.566;2023-02-07T05:56:30;-2.70;99.90
19970;DHT22;10146;47.754;9.566;2023-02-07T05:58:55;-2.70;99.90
19970;DHT22;10146;47.754;9.566;2023-02-07T06:01:21;-2.70;99.90
19970;DHT22;10146;47.754;9.566;2023-02-07T06:03:46;-2.70;99.90
19970;DHT22;10146;47.754;9.566;2023-02-07T06:06:12;-2.70;99.90
19970;DHT22;10146;47.754;9.566;2023-02-07T06:08:38;-2.80;99.90
19970;DHT22;10146;47.754;9.566;2023-02-07T06:11:03;-2.90;99.90
19970;DHT22;10146;47.754;9.566;2023-02-07T06:13:29;-2.80;99.90
19970;DHT22;10146;47.754;9.566;2023-02-07T06:15:54;-2.90;99.90
19970;DHT22;10146;47.754;9.566;2023-02-07T06:18:21;-2.80;99.90
19970;DHT22;10146;47.754;9.566;2023-02-07T06:20:49;-2.90;99.90
19970;DHT22;10146;47.754;9.566;2023-02-07T06:23:15;-3.00;99.90
19970;DHT22;10146;47.754;9.566;2023-02-07T06:25:41;-3.00;99.90
19970;DHT22;10146;47.754;9.566;2023-02-07T06:28:06;-2.90;99.90
19970;DHT22;10146;47.754;9.566;2023-02-07T06:30:32;-2.90;99.90
19970;DHT22;10146;47.754;9.566;2023-02-07T06:32:58;-2.80;99.90
19970;DHT22;10146;47.754;9.566;2023-02-07T06:35:23;-2.90;99.90
19970;DHT22;10146;47.754;9.566;2023-02-07T06:37:49;-2.90;99.90
19970;DHT22;10146;47.754;9.566;2023-02-07T06:40:14;-2.80;99.90
19970;DHT22;10146;47.754;9.566;2023-02-07T06:42:40;-2.80;99.90
19970;DHT22;10146;47.754;9.566;2023-02-07T06:45:06;-2.70;99.90
19970;DHT22;10146;47.754;9.566;2023-02-07T06:47:32;-2.90;99.90
19970;DHT22;10146;47.754;9.566;2023-02-07T06:49:57;-2.80;99.90
19970;DHT22;10146;47.754;9.566;2023-02-07T06:52:23;-2.80;99.90
19970;DHT22;10146;47.754;9.566;2023-02-07T06:54:48;-2.80;99.90
19970;DHT22;10146;47.754;9.566;2023-02-07T06:57:14;-2.80;99.90
19970;DHT22;10146;47.754;9.566;2023-02-07T06:59:40;-2.90;99.90
19970;DHT22;10146;47.754;9.566;2023-02-07T07:02:05;-2.90;99.90
19970;DHT22;10146;47.754;9.566;2023-02-07T07:04:31;-2.80;99.90
19970;DHT22;10146;47.754;9.566;2023-02-07T07:06:57;-2.80;99.90
19970;DHT22;10146;47.754;9.566;2023-02-07T07:09:23;-2.80;99.90
19970;DHT22;10146;47.754;9.566;2023-02-07T07:11:48;-2.80;99.90
19970;DHT22;10146;47.754;9.566;2023-02-07T07:14:14;-2.70;99.90
19970;DHT22;10146;47.754;9.566;2023-02-07T07:16:39;-2.70;99.90
19970;DHT22;10146;47.754;9.566;2023-02-07T07:19:05;-2.60;99.90
19970;DHT22;10146;47.754;9.566;2023-02-07T07:21:31;-2.60;99.90
19970;DHT22;10146;47.754;9.566;2023-02-07T07:23:57;-2.60;99.90
19970;DHT22;10146;47.754;9.566;2023-02-07T07:26:23;-2.60;99.90
19970;DHT22;10146;47.754;9.566;2023-02-07T07:28:49;-2.50;99.90
19970;DHT22;10146;47.754;9.566;2023-02-07T07:31:15;-2.40;99.90
19970;DHT22;10146;47.754;9.566;2023-02-07T07:33:40;-2.60;99.90
19970;DHT22;10146;47.754;9.566;2023-02-07T07:36:06;-2.50;99.90
19970;DHT22;10146;47.754;9.566;2023-02-07T07:38:32;-2.50;99.90
19970;DHT22;10146;47.754;9.566;2023-02-07T07:40:58;-2.50;99.90
19970;DHT22;10146;47.754;9.566;2023-02-07T07:43:24;-2.40;99.90
19970;DHT22;10146;47.754;9.566;2023-02-07T07:45:55;-2.40;99.90
19970;DHT22;10146;47.754;9.566;2023-02-07T07:48:22;-2.30;99.90
19970;DHT22;10146;47.754;9.566;2023-02-07T07:50:48;-2.40;99.90
19970;DHT22;10146;47.754;9.566;2023-02-07T07:53:14;-2.40;99.90
19970;DHT22;10146;47.754;9.566;2023-02-07T07:55:40;-2.10;99.90
19970;DHT22;10146;47.754;9.566;2023-02-07T07:58:06;-2.20;99.90
19970;DHT22;10146;47.754;9.566;2023-02-07T08:00:31;-2.20;99.90
19970;DHT22;10146;47.754;9.566;2023-02-07T08:02:57;-2.20;99.90
19970;DHT22;10146;47.754;9.566;2023-02-07T08:05:23;-2.10;99.90
19970;DHT22;10146;47.754;9.566;2023-02-07T08:07:48;-2.10;99.90
19970;DHT22;10146;47.754;9.566;2023-02-07T08:10:15;-2.10;99.90
19970;DHT22;10146;47.754;9.566;2023-02-07T08:12:41;-2.00;99.90
19970;DHT22;10146;47.754;9.566;2023-02-07T08:15:07;-2.00;99.90
19970;DHT22;10146;47.754;9.566;2023-02-07T08:17:34;-2.00;99.90
19970;DHT22;10146;47.754;9.566;2023-02-07T08:20:01;-2.00;99.90
19970;DHT22;10146;47.754;9.566;2023-02-07T08:22:27;-2.00;99.90
19970;DHT22;10146;47.754;9.566;2023-02-07T08:24:52;-2.00;99.90
19970;DHT22;10146;47.754;9.566;2023-02-07T08:27:18;-2.00;99.90
19970;DHT22;10146;47.754;9.566;2023-02-07T08:29:43;-2.00;99.90
19970;DHT22;10146;47.754;9.566;2023-02-07T08:32:10;-2.00;99.90
19970;DHT22;10146;47.754;9.566;2023-02-07T08:34:36;-1.90;99.90
19970;DHT22;10146;47.754;9.566;2023-02-07T08:37:06;-1.90;99.90
19970;DHT22;10146;47.754;9.566;2023-02-07T08:39:34;-1.90;99.90
19970;DHT22;10146;47.754;9.566;2023-02-07T08:42:00;-1.80;99.90
19970;DHT22;10146;47.754;9.566;2023-02-07T08:44:26;-1.80;99.90
19970;DHT22;10146;47.754;9.566;2023-02-07T08:46:52;-1.70;99.90
19970;DHT22;10146;47.754;9.566;2023-02-07T08:49:18;-1.70;99.90
19970;DHT22;10146;47.754;9.566;2023-02-07T08:51:43;-1.60;99.90
19970;DHT22;10146;47.754;9.566;2023-02-07T08:54:09;-1.60;99.90
19970;DHT22;10146;47.754;9.566;2023-02-07T08:56:35;-1.70;99.90
19970;DHT22;10146;47.754;9.566;2023-02-07T08:59:00;-1.60;99.90
19970;DHT22;10146;47.754;9.566;2023-02-07T09:01:26;-1.70;99.90
19970;DHT22;10146;47.754;9.566;2023-02-07T09:03:55;-1.60;99.90
19970;DHT22;10146;47.754;9.566;2023-02-07T09:06:22;-1.50;99.90
19970;DHT22;10146;47.754;9.566;2023-02-07T09:08:48;-1.60;99.90
19970;DHT22;10146;47.754;9.566;2023-02-07T09:11:14;-1.50;99.90
19970;DHT22;10146;47.754;9.566;2023-02-07T09:13:40;-1.40;99.90
19970;DHT22;10146;47.754;9.566;2023-02-07T09:16:06;-1.40;99.90
19970;DHT22;10146;47.754;9.566;2023-02-07T09:18:32;-1.30;99.90
19970;DHT22;10146;47.754;9.566;2023-02-07T09:20:59;-1.20;99.90
19970;DHT22;10146;47.754;9.566;2023-02-07T09:23:24;-1.20;99.90
19970;DHT22;10146;47.754;9.566;2023-02-07T09:25:51;-1.30;99.90
19970;DHT22;10146;47.754;9.566;2023-02-07T09:28:17;-1.30;99.90
19970;DHT22;10146;47.754;9.566;2023-02-07T09:30:45;-1.20;99.90
19970;DHT22;10146;47.754;9.566;2023-02-07T09:33:12;-1.30;99.90
19970;DHT22;10146;47.754;9.566;2023-02-07T09:35:43;-1.20;99.90
19970;DHT22;10146;47.754;9.566;2023-02-07T09:38:13;-1.20;99.90
19970;DHT22;10146;47.754;9.566;2023-02-07T09:40:40;-1.10;99.90
19970;DHT22;10146;47.754;9.566;2023-02-07T09:45:46;-1.00;99.90
19970;DHT22;10146;47.754;9.566;2023-02-07T09:48:20;-1.00;99.90
19970;DHT22;10146;47.754;9.566;2023-02-07T09:50:51;-1.10;99.90
19970;DHT22;10146;47.754;9.566;2023-02-07T09:53:49;-0.90;99.90
19970;DHT22;10146;47.754;9.566;2023-02-07T09:56:17;-0.80;99.90
19970;DHT22;10146;47.754;9.566;2023-02-07T10:01:43;-0.80;99.90
19970;DHT22;10146;47.754;9.566;2023-02-07T10:04:29;-0.70;99.90
19970;DHT22;10146;47.754;9.566;2023-02-07T10:06:59;-0.70;99.90
19970;DHT22;10146;47.754;9.566;2023-02-07T10:09:30;-0.80;99.90
19970;DHT22;10146;47.754;9.566;2023-02-07T10:14:59;-0.60;99.90
19970;DHT22;10146;47.754;9.566;2023-02-07T10:20:38;-0.50;99.90
19970;DHT22;10146;47.754;9.566;2023-02-07T10:26:26;-0.30;99.90
19970;DHT22;10146;47.754;9.566;2023-02-07T10:31:24;-0.20;99.90
19970;DHT22;10146;47.754;9.566;2023-02-07T10:33:57;-0.10;99.90
19970;DHT22;10146;47.754;9.566;2023-02-07T10:36:24;-0.30;99.90
19970;DHT22;10146;47.754;9.566;2023-02-07T10:39:14;-0.20;99.90
19970;DHT22;10146;47.754;9.566;2023-02-07T10:41:41;-0.10;99.90
19970;DHT22;10146;47.754;9.566;2023-02-07T10:44:19;0.00;99.90
19970;DHT22;10146;47.754;9.566;2023-02-07T10:46:49;0.10;99.90
19970;DHT22;10146;47.754;9.566;2023-02-07T10:49:28;-0.20;99.90
19970;DHT22;10146;47.754;9.566;2023-02-07T10:51:56;0.00;99.90
19970;DHT22;10146;47.754;9.566;2023-02-07T10:54:23;0.00;99.90
19970;DHT22;10146;47.754;9.566;2023-02-07T10:56:51;-0.10;99.90
19970;DHT22;10146;47.754;9.566;2023-02-07T10:59:40;0.00;99.90
19970;DHT22;10146;47.754;9.566;2023-02-07T11:02:34;-0.10;99.90
19970;DHT22;10146;47.754;9.566;2023-02-07T11:07:30;0.00;99.90
19970;DHT22;10146;47.754;9.566;2023-02-07T11:10:20;-0.10;99.90
19970;DHT22;10146;47.754;9.566;2023-02-07T11:12:54;0.00;99.90
19970;DHT22;10146;47.754;9.566;2023-02-07T11:15:23;0.00;99.90
19970;DHT22;10146;47.754;9.566;2023-02-07T11:17:54;0.10;99.90
19970;DHT22;10146;47.754;9.566;2023-02-07T11:20:27;0.10;99.90
19970;DHT22;10146;47.754;9.566;2023-02-07T11:22:55;0.20;99.90
19970;DHT22;10146;47.754;9.566;2023-02-07T11:25:42;0.20;99.90
19970;DHT22;10146;47.754;9.566;2023-02-07T11:28:34;0.30;99.90
19970;DHT22;10146;47.754;9.566;2023-02-07T11:31:05;0.40;99.90
19970;DHT22;10146;47.754;9.566;2023-02-07T11:33:34;0.40;99.90
19970;DHT22;10146;47.754;9.566;2023-02-07T11:36:28;0.00;99.90
19970;DHT22;10146;47.754;9.566;2023-02-07T11:38:56;0.20;99.90
19970;DHT22;10146;47.754;9.566;2023-02-07T11:41:28;0.40;99.90
19970;DHT22;10146;47.754;9.566;2023-02-07T11:44:04;0.50;99.90
19970;DHT22;10146;47.754;9.566;2023-02-07T11:46:41;0.60;99.90
19970;DHT22;10146;47.754;9.566;2023-02-07T11:49:25;0.70;99.90
19970;DHT22;10146;47.754;9.566;2023-02-07T11:51:57;0.50;99.90
19970;DHT22;10146;47.754;9.566;2023-02-07T11:54:23;0.60;99.90
19970;DHT22;10146;47.754;9.566;2023-02-07T11:56:51;0.70;99.90
19970;DHT22;10146;47.754;9.566;2023-02-07T11:59:21;0.90;99.90
19970;DHT22;10146;47.754;9.566;2023-02-07T12:01:55;0.70;99.90
19970;DHT22;10146;47.754;9.566;2023-02-07T12:04:32;0.80;99.90
19970;DHT22;10146;47.754;9.566;2023-02-07T12:07:17;1.00;99.90
19970;DHT22;10146;47.754;9.566;2023-02-07T12:09:59;1.10;99.90
19970;DHT22;10146;47.754;9.566;2023-02-07T12:12:48;1.00;99.90
19970;DHT22;10146;47.754;9.566;2023-02-07T12:20:30;1.40;99.90
19970;DHT22;10146;47.754;9.566;2023-02-07T12:25:41;1.30;99.90
19970;DHT22;10146;47.754;9.566;2023-02-07T12:28:42;1.40;99.90
19970;DHT22;10146;47.754;9.566;2023-02-07T12:31:24;1.30;99.90
19970;DHT22;10146;47.754;9.566;2023-02-07T12:34:10;1.40;99.90
19970;DHT22;10146;47.754;9.566;2023-02-07T12:36:42;1.40;99.90
19970;DHT22;10146;47.754;9.566;2023-02-07T12:39:30;1.40;99.90
19970;DHT22;10146;47.754;9.566;2023-02-07T12:45:00;1.50;99.90
19970;DHT22;10146;47.754;9.566;2023-02-07T12:58:40;1.50;99.90
19970;DHT22;10146;47.754;9.566;2023-02-07T13:01:34;1.40;99.90
19970;DHT22;10146;47.754;9.566;2023-02-07T13:04:17;1.60;99.90
19970;DHT22;10146;47.754;9.566;2023-02-07T13:17:36;2.00;99.90
19970;DHT22;10146;47.754;9.566;2023-02-07T13:22:56;1.90;99.90
19970;DHT22;10146;47.754;9.566;2023-02-07T13:25:42;1.80;99.90
19970;DHT22;10146;47.754;9.566;2023-02-07T13:31:03;1.80;99.90
19970;DHT22;10146;47.754;9.566;2023-02-07T13:33:40;1.80;99.90
19970;DHT22;10146;47.754;9.566;2023-02-07T13:44:35;2.20;99.90
19970;DHT22;10146;47.754;9.566;2023-02-07T13:50:05;2.10;99.90
19970;DHT22;10146;47.754;9.566;2023-02-07T13:52:54;2.30;99.90
19970;DHT22;10146;47.754;9.566;2023-02-07T13:55:36;2.20;99.90
19970;DHT22;10146;47.754;9.566;2023-02-07T13:58:03;2.30;99.90
19970;DHT22;10146;47.754;9.566;2023-02-07T14:03:30;2.60;99.90
19970;DHT22;10146;47.754;9.566;2023-02-07T14:08:44;2.70;99.90
19970;DHT22;10146;47.754;9.566;2023-02-07T14:12:12;2.50;99.90
19970;DHT22;10146;47.754;9.566;2023-02-07T14:14:36;2.60;99.90
19970;DHT22;10146;47.754;9.566;2023-02-07T14:17:05;2.50;99.90
19970;DHT22;10146;47.754;9.566;2023-02-07T14:40:49;2.50;99.90
19970;DHT22;10146;47.754;9.566;2023-02-07T14:43:25;2.40;99.90
19970;DHT22;10146;47.754;9.566;2023-02-07T14:46:03;2.40;99.90
19970;DHT22;10146;47.754;9.566;2023-02-07T14:48:35;2.30;99.90
19970;DHT22;10146;47.754;9.566;2023-02-07T14:51:07;2.30;99.90
19970;DHT22;10146;47.754;9.566;2023-02-07T14:53:38;2.20;99.90
19970;DHT22;10146;47.754;9.566;2023-02-07T14:56:05;2.10;99.90
19970;DHT22;10146;47.754;9.566;2023-02-07T14:58:40;2.20;99.90
19970;DHT22;10146;47.754;9.566;2023-02-07T15:01:11;2.40;99.90
19970;DHT22;10146;47.754;9.566;2023-02-07T15:03:37;2.30;99.90
19970;DHT22;10146;47.754;9.566;2023-02-07T15:06:14;2.40;99.90
19970;DHT22;10146;47.754;9.566;2023-02-07T15:08:57;2.50;99.90
19970;DHT22;10146;47.754;9.566;2023-02-07T15:11:25;2.50;99.90
19970;DHT22;10146;47.754;9.566;2023-02-07T15:13:56;2.50;99.90
19970;DHT22;10146;47.754;9.566;2023-02-07T15:16:30;2.60;99.90
19970;DHT22;10146;47.754;9.566;2023-02-07T15:19:01;2.80;99.90
19970;DHT22;10146;47.754;9.566;2023-02-07T15:21:41;3.10;99.90
19970;DHT22;10146;47.754;9.566;2023-02-07T15:24:19;3.10;99.90
19970;DHT22;10146;47.754;9.566;2023-02-07T15:26:55;3.00;99.90
19970;DHT22;10146;47.754;9.566;2023-02-07T15:29:33;3.00;99.90
19970;DHT22;10146;47.754;9.566;2023-02-07T15:31:59;2.40;99.90
19970;DHT22;10146;47.754;9.566;2023-02-07T15:34:31;2.20;99.90
19970;DHT22;10146;47.754;9.566;2023-02-07T15:36:59;1.80;99.90
19970;DHT22;10146;47.754;9.566;2023-02-07T15:39:27;1.60;99.90
19970;DHT22;10146;47.754;9.566;2023-02-07T15:41:55;1.50;99.90
19970;DHT22;10146;47.754;9.566;2023-02-07T15:44:29;1.30;99.90
19970;DHT22;10146;47.754;9.566;2023-02-07T15:51:55;1.10;99.90
19970;DHT22;10146;47.754;9.566;2023-02-07T15:54:22;0.90;99.90
19970;DHT22;10146;47.754;9.566;2023-02-07T15:56:52;0.90;99.90
19970;DHT22;10146;47.754;9.566;2023-02-07T15:59:24;1.00;99.90
19970;DHT22;10146;47.754;9.566;2023-02-07T16:01:54;0.70;99.90
19970;DHT22;10146;47.754;9.566;2023-02-07T16:04:25;0.70;99.90
19970;DHT22;10146;47.754;9.566;2023-02-07T16:07:00;0.60;99.90
19970;DHT22;10146;47.754;9.566;2023-02-07T16:09:39;0.60;99.90
19970;DHT22;10146;47.754;9.566;2023-02-07T16:15:28;0.40;99.90
19970;DHT22;10146;47.754;9.566;2023-02-07T16:17:54;0.30;99.90
19970;DHT22;10146;47.754;9.566;2023-02-07T16:20:20;0.40;99.90
19970;DHT22;10146;47.754;9.566;2023-02-07T16:22:47;0.20;99.90
19970;DHT22;10146;47.754;9.566;2023-02-07T16:25:19;0.10;99.90
19970;DHT22;10146;47.754;9.566;2023-02-07T16:27:47;0.10;99.90
19970;DHT22;10146;47.754;9.566;2023-02-07T16:30:20;0.10;99.90
19970;DHT22;10146;47.754;9.566;2023-02-07T16:32:46;0.00;99.90
19970;DHT22;10146;47.754;9.566;2023-02-07T16:35:18;-0.10;99.90
19970;DHT22;10146;47.754;9.566;2023-02-07T16:37:44;-0.10;99.90
19970;DHT22;10146;47.754;9.566;2023-02-07T16:40:12;-0.10;99.90
19970;DHT22;10146;47.754;9.566;2023-02-07T16:42:39;-0.10;99.90
19970;DHT22;10146;47.754;9.566;2023-02-07T16:45:17;-0.20;99.90
19970;DHT22;10146;47.754;9.566;2023-02-07T16:47:44;-0.10;99.90
19970;DHT22;10146;47.754;9.566;2023-02-07T16:50:23;-0.20;99.90
19970;DHT22;10146;47.754;9.566;2023-02-07T16:52:51;-0.20;99.90
19970;DHT22;10146;47.754;9.566;2023-02-07T16:55:18;-0.30;99.90
19970;DHT22;10146;47.754;9.566;2023-02-07T16:57:45;-0.30;99.90
19970;DHT22;10146;47.754;9.566;2023-02-07T17:00:18;-0.40;99.90
19970;DHT22;10146;47.754;9.566;2023-02-07T17:02:45;-0.40;99.90
19970;DHT22;10146;47.754;9.566;2023-02-07T17:05:13;-0.50;99.90
19970;DHT22;10146;47.754;9.566;2023-02-07T17:07:39;-0.50;99.90
19970;DHT22;10146;47.754;9.566;2023-02-07T17:10:24;-0.60;99.90
19970;DHT22;10146;47.754;9.566;2023-02-07T17:12:50;-0.60;99.90
19970;DHT22;10146;47.754;9.566;2023-02-07T17:15:15;-0.50;99.90
19970;DHT22;10146;47.754;9.566;2023-02-07T17:17:41;-0.60;99.90
19970;DHT22;10146;47.754;9.566;2023-02-07T17:20:26;-0.60;99.90
19970;DHT22;10146;47.754;9.566;2023-02-07T17:22:53;-0.60;99.90
19970;DHT22;10146;47.754;9.566;2023-02-07T17:25:21;-0.60;99.90
19970;DHT22;10146;47.754;9.566;2023-02-07T17:27:47;-0.60;99.90
19970;DHT22;10146;47.754;9.566;2023-02-07T17:30:17;-0.70;99.90
19970;DHT22;10146;47.754;9.566;2023-02-07T17:32:43;-0.70;99.90
19970;DHT22;10146;47.754;9.566;2023-02-07T17:35:09;-0.70;99.90
19970;DHT22;10146;47.754;9.566;2023-02-07T17:37:35;-0.70;99.90
19970;DHT22;10146;47.754;9.566;2023-02-07T17:40:00;-0.70;99.90
19970;DHT22;10146;47.754;9.566;2023-02-07T17:42:26;-0.80;99.90
19970;DHT22;10146;47.754;9.566;2023-02-07T17:44:51;-0.80;99.90
19970;DHT22;10146;47.754;9.566;2023-02-07T17:47:17;-0.90;99.90
19970;DHT22;10146;47.754;9.566;2023-02-07T17:49:43;-0.90;99.90
19970;DHT22;10146;47.754;9.566;2023-02-07T17:52:08;-0.90;99.90
19970;DHT22;10146;47.754;9.566;2023-02-07T17:54:38;-0.90;99.90
19970;DHT22;10146;47.754;9.566;2023-02-07T17:57:09;-1.00;99.90
19970;DHT22;10146;47.754;9.566;2023-02-07T17:59:36;-1.00;99.90
19970;DHT22;10146;47.754;9.566;2023-02-07T18:02:01;-0.90;99.90
19970;DHT22;10146;47.754;9.566;2023-02-07T18:04:28;-0.90;99.90